Tuesday, November 25, 2014
23:19 UTC
  |  Log In   |  Register Free
Airport Search:

Akron-Canton Regional Airport
(KCAK)

FAA data valid effective November 13, 2014 - January 08, 2015 (unless otherwise noted).

 
 
 
 
 
 
 
 
 
 
 
 
 
 

Current Aviation Weather for Akron-Canton Regional Airport (KCAK)

The most recent METAR observation for KCAK was updated at: 2316
METAR Summary (Translated METAR)
KCAK
252251Z 27004KT 10SM OVC030 03/M04 A3010 RMK AO2 SLP204 T00281039
KAKR
252254Z AUTO 27009KT 10SM OVC028 03/M03 A3011 RMK AO2 SLP203 T00281028
(7.4 nm NW from KCAK)
KPOV
252200Z AUTO 24007KT 10SM OVC027 02/M04 A3009 RMK AO2 T00181044
(19.7 nm NE from KCAK)
TAF Summary (Translated TAF)
KCAK
251739Z 2518/2618 24015G22KT P6SM OVC030 FM252100 25012KT P6SM OVC025 FM260000 25005KT P6SM BKN025 FM260500 VRB03KT P6SM SCT100 OVC250 FM261500 06003KT P6SM BKN250
  Airport Weather Conditions for KCAK

 Current Weather at CAK
37° F
Overcast
West winds at 4.6 mph
CAK NOAA Radar

Pressure: 30.10 in
Humidity: 62%
Wind: West at 4.6 MPH (4 KT)
Dew Point: 25.0°F
Visibility: 10.00 mi


Airport Weather Forecast for KCAK

Translated METAR and TAF for KCAK
Translated METAR for KCAK (2314 UTC 25 November 2014)
found at http://aviationweather.gov/adds/metars/
 
METAR text: KCAK 252251Z 27004KT 10SM OVC030 03/M04 A3010 RMK AO2 SLP204 T00281039
Conditions at: KCAK (AKRON , OH, US) observed 2251 UTC 25 November 2014
Temperature: 2.8°C (37°F)
Dewpoint: -3.9°C (25°F) [RH = 61%]
Pressure (altimeter): 30.10 inches Hg (1019.4 mb)
[Sea-level pressure: 1020.4 mb]
Winds: from the W (270 degrees) at 5 MPH (4 knots; 2.1 m/s)
Visibility: 10 or more miles (16+ km)
Ceiling: 3000 feet AGL
Clouds: overcast cloud deck at 3000 feet AGL
Weather: no significant weather observed at this time
Translated TAF for KCAK
Forecast for: KCAK (AKRON , OH, US)
TAF Text: KCAK 251739Z 2518/2618 24015G22KT P6SM OVC030
Forecast period: 1800 to 2100 UTC 25 November 2014
Forecast type: FROM: standard forecast or significant change
Winds: from the WSW (240 degrees) at 17 MPH (15 knots; 7.8 m/s)
gusting to 25 MPH (22 knots; 11.4 m/s)
Visibility: 6 or more miles (10+ km)
Ceiling: 3000 feet AGL
Clouds: overcast cloud deck at 3000 feet AGL
Weather: no significant weather forecast for this period
TAF Text: FM252100 25012KT P6SM OVC025
Forecast period: 2100 UTC 25 November 2014 to 0000 UTC 26 November 2014
Forecast type: FROM: standard forecast or significant change
Winds: from the WSW (250 degrees) at 14 MPH (12 knots; 6.2 m/s)
Visibility: 6 or more miles (10+ km)
Ceiling: 2500 feet AGL
Clouds: overcast cloud deck at 2500 feet AGL
Weather: no significant weather forecast for this period
TAF Text: FM260000 25005KT P6SM BKN025
Forecast period: 0000 to 0500 UTC 26 November 2014
Forecast type: FROM: standard forecast or significant change
Winds: from the WSW (250 degrees) at 6 MPH (5 knots; 2.6 m/s)
Visibility: 6 or more miles (10+ km)
Ceiling: 2500 feet AGL
Clouds: broken clouds at 2500 feet AGL
Weather: no significant weather forecast for this period
TAF Text: FM260500 VRB03KT P6SM SCT100 OVC250
Forecast period: 0500 to 1500 UTC 26 November 2014
Forecast type: FROM: standard forecast or significant change
Winds: variable direction winds at 3 MPH (3 knots; 1.6 m/s)
Visibility: 6 or more miles (10+ km)
Ceiling: 25000 feet AGL
Clouds: scattered clouds at 10000 feet AGL
overcast cloud deck at 25000 feet AGL
Weather: no significant weather forecast for this period
TAF Text: FM261500 06003KT P6SM BKN250
Forecast period: 1500 to 1800 UTC 26 November 2014
Forecast type: FROM: standard forecast or significant change
Winds: from the ENE (60 degrees) at 3 MPH (3 knots; 1.6 m/s)
Visibility: 6 or more miles (10+ km)
Ceiling: 25000 feet AGL
Clouds: broken clouds at 25000 feet AGL
Weather: no significant weather forecast for this period

Find All Airport Services Find A Hotel Find A Rental Car Find A Golf Course Find A Restaurant $100 Hamburger



FBO's on the Field
FBO Company Facility Photos Services Transportation Aviation Fuel Prices: Prices include tax
Catering Weather Repair Courtesy Rental Type 100LL JetA JetA+ MOGAS 8087
 
Avflight Akron-Canton

This FBO has not yet been rated
FS:
Last Updated: Nov-11
Login to update fuel prices
SS:
Contact Avflight Akron-CantonMore FBO Information
 
McKinley Air, Inc.

Currently rated 4.4 by 4 people
FS:Phillips 66
Last Updated: Nov-25
Login to update fuel prices
SS:
Contact McKinley Air, Inc.More FBO Information
 
Add another FBO Facility Photos Catering Weather Repair Courtesy Rental Type 100LL JetA JetA+ MOGAS 8087
Services Transportation Aviation Fuel Prices: Prices include tax


model-print
model-print
model-print
model-print